Valley Mills, Texas
Current Conditions -  °F | °C
As of 5:35 PM on Monday 22 Dec 2014 (Local Time) from KPWG Reporting Station
Clear Clear  
Wind Chill: 61°   Ceiling: Unl
Heat Index: 61°   Visibility: 10mi
Dew Point: 39°   Wind: 6mph
Humidity: 45%   Direction: 320°NW
Pressure: 29.65"   Gusts: NA
Location:  31.66°N, 97.47°W
Report Text: KPWG 222335Z AUTO 32005KT 10SM CLR 16/04 A2965 RMK AO1
Loading
Personal Weather Stations






























Interactive Weather Map New forecast layout! Learn more

10-Day Weather Forecast

Advertisements
Track Severe Weather on mobile